Time;durP1;ratioP1;P1;durP2;ratioP2;P2;SDS_P1;SDS_P2;PMS_P1;PMS_P2;Temp;Humidity;BMP_temperature;BMP_pressure;BME280_temperature;BME280_humidity;BME280_pressure;Samples;Min_cycle;Max_cycle;Signal;HPM_P1;HPM_P2
2022/07/14 00:01:34;;;;;;;5.78;1.17;;;17.40;99.90;;;;;;5006490;28;20042;-31
2022/07/14 00:04:00;;;;;;;4.93;1.25;;;17.30;99.90;;;;;;5029187;28;20108;-37
2022/07/14 00:06:25;;;;;;;3.95;0.93;;;17.30;99.90;;;;;;5024871;28;20108;-33
2022/07/14 00:08:51;;;;;;;5.13;1.10;;;17.30;99.90;;;;;;5025074;28;20025;-37
2022/07/14 00:11:16;;;;;;;3.40;1.20;;;17.20;99.90;;;;;;5033842;28;20489;-34
2022/07/14 00:13:42;;;;;;;3.88;0.90;;;17.30;99.90;;;;;;5033071;28;20096;-35
2022/07/14 00:16:08;;;;;;;10.05;1.00;;;17.40;99.90;;;;;;5034750;28;20389;-31
2022/07/14 00:18:33;;;;;;;10.88;1.05;;;17.30;99.90;;;;;;5015955;28;20454;-34
2022/07/14 00:20:59;;;;;;;7.43;1.08;;;17.30;99.90;;;;;;5034893;28;20048;-36
2022/07/14 00:23:25;;;;;;;4.13;1.00;;;17.20;99.90;;;;;;5035813;28;20036;-35
2022/07/14 00:26:10;;;;;;;2.33;1.33;;;17.20;99.90;;;;;;5031139;28;20649;-47
2022/07/14 00:28:37;;;;;;;6.65;1.08;;;17.20;99.90;;;;;;5027537;28;20040;-38
2022/07/14 00:31:07;;;;;;;8.40;1.55;;;17.10;99.90;;;;;;5029317;28;20025;-36
2022/07/14 00:33:33;;;;;;;3.90;1.05;;;17.10;99.90;;;;;;5032513;28;20029;-37
2022/07/14 00:35:59;;;;;;;3.78;0.82;;;17.00;99.90;;;;;;5032114;28;20406;-37
2022/07/14 00:38:25;;;;;;;1.38;0.85;;;17.10;99.90;;;;;;5022978;28;20029;-31
2022/07/14 00:40:50;;;;;;;4.22;1.83;;;17.00;99.90;;;;;;5032375;28;20060;-34
2022/07/14 00:43:16;;;;;;;5.25;0.88;;;17.00;99.90;;;;;;5033598;28;20068;-31
2022/07/14 00:45:42;;;;;;;7.75;1.20;;;17.00;99.90;;;;;;5034426;28;20029;-32
2022/07/14 00:48:08;;;;;;;4.60;0.98;;;17.00;99.90;;;;;;5031796;28;20155;-29
2022/07/14 00:50:34;;;;;;;10.57;1.10;;;16.90;99.90;;;;;;5033045;28;20037;-34
2022/07/14 00:53:07;;;;;;;7.40;1.40;;;16.90;99.90;;;;;;5035567;28;20022;-31
2022/07/14 00:55:32;;;;;;;3.78;0.77;;;16.90;99.90;;;;;;5033843;28;20098;-33
2022/07/14 00:57:58;;;;;;;8.70;1.42;;;16.90;99.90;;;;;;5032731;28;20057;-34
2022/07/14 01:00:23;;;;;;;5.25;1.40;;;16.90;99.90;;;;;;5032616;28;20397;-38
2022/07/14 01:02:49;;;;;;;3.42;1.35;;;16.90;99.90;;;;;;5034587;28;20025;-37
2022/07/14 01:05:15;;;;;;;5.22;1.10;;;16.90;99.90;;;;;;5033925;28;20045;-37
2022/07/14 01:07:41;;;;;;;3.55;1.05;;;16.90;99.90;;;;;;5033830;28;20026;-30
2022/07/14 01:10:07;;;;;;;15.68;2.42;;;16.90;99.90;;;;;;5033724;28;20508;-33
2022/07/14 01:12:33;;;;;;;3.35;1.15;;;16.90;99.90;;;;;;5037422;28;20025;-36
2022/07/14 01:14:59;;;;;;;4.75;1.77;;;16.90;99.90;;;;;;5023325;28;20488;-37
2022/07/14 01:17:24;;;;;;;3.30;1.20;;;16.90;99.90;;;;;;5034581;28;20029;-36
2022/07/14 01:19:50;;;;;;;8.27;1.10;;;16.80;99.90;;;;;;5037973;28;20026;-35
2022/07/14 01:22:16;;;;;;;8.07;1.90;;;16.80;99.90;;;;;;5033987;28;20481;-34
2022/07/14 01:24:42;;;;;;;6.57;1.20;;;16.80;99.90;;;;;;5034386;28;20113;-36
2022/07/14 01:27:07;;;;;;;8.07;1.08;;;16.80;99.90;;;;;;5031847;28;20552;-31
2022/07/14 01:29:33;;;;;;;3.90;0.90;;;16.70;99.90;;;;;;5032851;28;20032;-33
2022/07/14 01:31:59;;;;;;;1.65;0.73;;;16.70;99.90;;;;;;5031691;28;20025;-30
2022/07/14 01:34:27;;;;;;;5.57;1.00;;;16.70;99.90;;;;;;5031044;28;20032;-31
2022/07/14 01:36:52;;;;;;;2.72;0.70;;;16.60;99.90;;;;;;5030809;28;20033;-33
2022/07/14 01:39:18;;;;;;;5.28;0.68;;;16.70;99.90;;;;;;5034503;28;20112;-38
2022/07/14 01:41:45;;;;;;;3.13;1.65;;;16.70;99.90;;;;;;5034265;28;20060;-36
2022/07/14 01:44:11;;;;;;;5.07;1.13;;;16.60;99.90;;;;;;5033534;28;20033;-38
2022/07/14 01:46:37;;;;;;;2.92;1.27;;;16.60;99.90;;;;;;5032613;28;20636;-38
2022/07/14 01:49:04;;;;;;;9.95;1.95;;;16.60;99.90;;;;;;5033717;28;20034;-38
2022/07/14 01:51:29;;;;;;;3.17;0.80;;;16.50;99.90;;;;;;5034602;28;20478;-37
2022/07/14 01:53:55;;;;;;;4.00;1.17;;;16.50;99.90;;;;;;5032093;28;20017;-32
2022/07/14 01:56:22;;;;;;;3.67;1.00;;;16.50;99.90;;;;;;5032952;28;20112;-38
2022/07/14 01:58:47;;;;;;;3.70;0.82;;;16.50;99.90;;;;;;5025132;28;20485;-34
2022/07/14 02:04:00;;;;;;;5.65;0.95;;;16.40;99.90;;;;;;5029830;28;20043;-38
2022/07/14 02:06:26;;;;;;;3.10;0.93;;;16.30;99.90;;;;;;5031325;28;20033;-35
2022/07/14 02:08:52;;;;;;;1.73;0.65;;;16.30;99.90;;;;;;5032553;28;20032;-31
2022/07/14 02:14:03;;;;;;;1.95;0.93;;;16.20;99.90;;;;;;5026340;28;20045;-32
2022/07/14 02:16:29;;;;;;;2.03;0.65;;;16.10;99.90;;;;;;5014478;28;20500;-35
2022/07/14 02:18:56;;;;;;;3.60;1.00;;;16.00;99.90;;;;;;5034078;28;20108;-32
2022/07/14 02:21:21;;;;;;;3.85;0.80;;;16.00;99.90;;;;;;5036888;28;20060;-32
2022/07/14 02:23:47;;;;;;;4.32;1.63;;;15.90;99.90;;;;;;5033324;28;20018;-35
2022/07/14 02:26:13;;;;;;;5.68;0.90;;;15.90;99.90;;;;;;5030956;28;20028;-33
2022/07/14 02:28:40;;;;;;;3.28;0.68;;;15.80;99.90;;;;;;5033088;28;20029;-35
2022/07/14 02:31:06;;;;;;;9.40;1.03;;;15.80;99.90;;;;;;5031575;28;20021;-30
2022/07/14 02:33:32;;;;;;;3.78;0.75;;;15.70;99.90;;;;;;5031768;28;20334;-31
2022/07/14 02:35:58;;;;;;;1.88;0.80;;;15.70;99.90;;;;;;5033410;28;20481;-35
2022/07/14 02:38:23;;;;;;;4.18;1.08;;;15.70;99.90;;;;;;5031252;28;20057;-31
2022/07/14 02:40:49;;;;;;;3.08;1.10;;;15.60;99.90;;;;;;5032907;28;20393;-30
2022/07/14 02:43:15;;;;;;;2.88;0.50;;;15.60;99.90;;;;;;5036500;28;20029;-37
2022/07/14 02:45:40;;;;;;;1.58;0.70;;;15.50;99.90;;;;;;5031196;28;20507;-33
2022/07/14 02:48:06;;;;;;;5.15;0.70;;;15.50;99.90;;;;;;5031846;28;20670;-31
2022/07/14 02:50:32;;;;;;;6.25;0.80;;;15.50;99.90;;;;;;5032679;28;20053;-28
2022/07/14 02:52:58;;;;;;;3.05;1.27;;;15.50;99.90;;;;;;5032809;28;20052;-28
2022/07/14 02:55:25;;;;;;;1.67;0.60;;;15.50;99.90;;;;;;5030741;28;20132;-31
2022/07/14 02:57:50;;;;;;;6.55;0.98;;;15.50;99.90;;;;;;5032146;28;20064;-36
2022/07/14 03:00:17;;;;;;;2.92;0.88;;;15.40;99.90;;;;;;5030184;28;20033;-30
2022/07/14 03:02:42;;;;;;;1.98;1.00;;;15.40;99.90;;;;;;5033309;28;20485;-47
2022/07/14 03:05:08;;;;;;;4.25;0.70;;;15.30;99.90;;;;;;5031825;28;20060;-36
2022/07/14 03:07:33;;;;;;;3.95;1.00;;;15.30;99.90;;;;;;5033296;28;20084;-38
2022/07/14 03:09:59;;;;;;;0.77;0.77;;;15.30;99.90;;;;;;5031606;28;20075;-38
2022/07/14 03:12:25;;;;;;;1.67;0.73;;;15.30;99.90;;;;;;5031633;28;20477;-31
2022/07/14 03:14:50;;;;;;;2.10;0.70;;;15.30;99.90;;;;;;5031203;28;20032;-29
2022/07/14 03:17:17;;;;;;;6.13;0.90;;;15.20;99.90;;;;;;5032106;28;20489;-38
2022/07/14 03:19:43;;;;;;;2.65;0.80;;;15.10;99.90;;;;;;5030988;28;20124;-33
2022/07/14 03:22:09;;;;;;;4.00;0.82;;;15.10;99.90;;;;;;5034949;28;20121;-35
2022/07/14 03:24:34;;;;;;;1.73;1.17;;;15.00;99.90;;;;;;5031540;28;20516;-30
2022/07/14 03:27:00;;;;;;;4.22;0.90;;;14.90;99.90;;;;;;5032437;28;20389;-32
2022/07/14 03:29:27;;;;;;;2.55;0.90;;;14.90;99.90;;;;;;5031142;28;20026;-34
2022/07/14 03:31:53;;;;;;;8.85;1.15;;;14.90;99.90;;;;;;5031953;28;20022;-32
2022/07/14 03:34:18;;;;;;;3.08;0.88;;;14.80;99.90;;;;;;5032154;28;20410;-32
2022/07/14 03:36:44;;;;;;;1.67;0.65;;;14.80;99.90;;;;;;5031601;28;20037;-32
2022/07/14 03:39:10;;;;;;;1.38;0.52;;;14.90;99.90;;;;;;5031558;28;20035;-27
2022/07/14 03:41:35;;;;;;;6.00;1.00;;;14.80;99.90;;;;;;5032839;28;20026;-47
2022/07/14 03:44:02;;;;;;;8.68;1.45;;;14.80;99.90;;;;;;5034874;28;20024;-32
2022/07/14 03:46:28;;;;;;;2.70;0.85;;;14.80;99.90;;;;;;5035413;28;20389;-38
2022/07/14 03:48:54;;;;;;;9.23;1.00;;;14.80;99.90;;;;;;5035364;28;20045;-38
2022/07/14 03:51:19;;;;;;;2.88;1.00;;;14.80;99.90;;;;;;5036164;28;20093;-33
2022/07/14 03:53:45;;;;;;;4.18;0.63;;;14.80;99.90;;;;;;5036209;28;20492;-31
2022/07/14 03:56:10;;;;;;;3.13;0.95;;;14.80;99.90;;;;;;5034730;28;20038;-47
2022/07/14 03:58:36;;;;;;;6.85;0.95;;;14.80;99.90;;;;;;5036174;28;20744;-37
2022/07/14 04:01:03;;;;;;;4.53;1.10;;;14.80;99.90;;;;;;5038711;28;20100;-33
2022/07/14 04:03:28;;;;;;;8.48;1.27;;;14.80;99.90;;;;;;5006923;28;20111;-30
2022/07/14 04:05:54;;;;;;;2.45;1.08;;;14.80;99.90;;;;;;5034628;28;20029;-33
2022/07/14 04:08:19;;;;;;;2.67;1.02;;;14.80;99.90;;;;;;5035555;28;20061;-33
2022/07/14 04:10:45;;;;;;;8.85;1.25;;;14.90;99.90;;;;;;5036068;28;20025;-31
2022/07/14 04:13:10;;;;;;;4.53;1.25;;;14.90;99.90;;;;;;5035731;28;20028;-37
2022/07/14 04:15:39;;;;;;;6.60;1.17;;;15.00;99.90;;;;;;5035056;28;20024;-35
2022/07/14 04:18:05;;;;;;;4.82;1.30;;;15.00;99.90;;;;;;5035677;28;20029;-48
2022/07/14 04:20:30;;;;;;;3.70;1.52;;;15.10;99.90;;;;;;5034244;28;20076;-39
2022/07/14 04:22:56;;;;;;;5.63;1.45;;;15.10;99.90;;;;;;5038290;28;20473;-41
2022/07/14 04:25:22;;;;;;;6.60;1.13;;;15.20;99.90;;;;;;5042831;28;20030;-38
2022/07/14 04:27:48;;;;;;;2.15;1.08;;;15.30;99.90;;;;;;5035094;28;20063;-39
2022/07/14 04:30:14;;;;;;;7.43;1.38;;;15.30;99.90;;;;;;5033277;28;20112;-38
2022/07/14 04:32:40;;;;;;;2.47;1.25;;;15.30;99.90;;;;;;5033166;28;20502;-32
2022/07/14 04:35:06;;;;;;;8.40;1.30;;;15.30;99.90;;;;;;5035232;28;20046;-31
2022/07/14 04:37:34;;;;;;;6.78;1.00;;;15.30;99.90;;;;;;5033209;28;20465;-29
2022/07/14 04:39:59;;;;;;;3.60;1.40;;;15.30;99.90;;;;;;5034132;28;20033;-31
2022/07/14 04:42:25;;;;;;;3.55;1.05;;;15.30;99.90;;;;;;5033649;28;20493;-31
2022/07/14 04:44:51;;;;;;;8.52;1.48;;;15.30;99.90;;;;;;5035834;28;20035;-32
2022/07/14 04:47:35;;;;;;;5.47;1.38;;;15.30;99.90;;;;;;5034148;28;20390;-35
2022/07/14 04:52:47;;;;;;;6.47;1.35;;;15.40;99.90;;;;;;5037802;28;20028;-33
2022/07/14 04:55:12;;;;;;;6.97;1.88;;;15.50;99.90;;;;;;5029947;28;20100;-35
2022/07/14 04:57:38;;;;;;;5.63;1.25;;;15.50;99.90;;;;;;5031814;28;20164;-29
2022/07/14 05:00:04;;;;;;;7.10;1.65;;;15.60;99.90;;;;;;5034129;28;20485;-31
2022/07/14 05:02:30;;;;;;;6.35;1.30;;;15.70;99.90;;;;;;5034981;28;20413;-42
2022/07/14 05:04:56;;;;;;;3.42;1.48;;;15.70;99.90;;;;;;5024936;28;20175;-37
2022/07/14 05:07:21;;;;;;;5.88;1.60;;;15.70;99.90;;;;;;5033965;28;20504;-31
2022/07/14 05:09:47;;;;;;;6.13;1.17;;;15.80;99.90;;;;;;5034474;28;20022;-31
2022/07/14 05:12:16;;;;;;;7.97;1.20;;;15.90;99.90;;;;;;5033875;28;20033;-48
2022/07/14 05:14:42;;;;;;;11.80;1.55;;;16.00;99.90;;;;;;5034636;28;20104;-47
2022/07/14 05:17:08;;;;;;;5.72;1.55;;;15.90;99.90;;;;;;5033420;28;20469;-39
2022/07/14 05:19:33;;;;;;;4.60;1.20;;;16.00;99.90;;;;;;5034598;28;20032;-39
2022/07/14 05:21:59;;;;;;;10.23;1.42;;;16.00;99.90;;;;;;5041070;28;20025;-37
2022/07/14 05:24:24;;;;;;;9.00;1.60;;;16.10;99.90;;;;;;5033543;28;20486;-40
2022/07/14 05:26:50;;;;;;;4.43;1.02;;;16.10;99.90;;;;;;5032945;28;20025;-40
2022/07/14 05:29:16;;;;;;;4.15;1.85;;;16.10;99.90;;;;;;5034197;28;20037;-39
2022/07/14 05:32:03;;;;;;;5.90;1.27;;;16.20;99.90;;;;;;5033422;28;20022;-38
2022/07/14 05:34:29;;;;;;;10.38;1.33;;;16.30;99.90;;;;;;5036871;28;20021;-39
2022/07/14 05:36:55;;;;;;;12.25;1.45;;;16.40;99.90;;;;;;5034197;28;20105;-38
2022/07/14 05:39:20;;;;;;;7.28;1.48;;;16.50;99.90;;;;;;5034032;28;20549;-39
2022/07/14 05:41:46;;;;;;;4.85;0.95;;;16.60;99.90;;;;;;5034075;28;20052;-39
2022/07/14 05:44:12;;;;;;;4.97;1.00;;;16.60;99.90;;;;;;5032733;28;20029;-37
2022/07/14 05:46:37;;;;;;;6.15;0.88;;;16.70;99.90;;;;;;5032479;28;20064;-47
2022/07/14 05:49:03;;;;;;;3.78;0.98;;;16.70;99.90;;;;;;5032294;28;20079;-38
2022/07/14 05:51:29;;;;;;;3.20;0.70;;;16.80;99.90;;;;;;5033882;28;20108;-39
2022/07/14 05:53:55;;;;;;;2.90;1.20;;;16.70;99.90;;;;;;5031743;28;20021;-39
2022/07/14 05:56:21;;;;;;;2.97;1.60;;;16.90;99.90;;;;;;5049586;28;20032;-39
2022/07/14 05:58:47;;;;;;;2.97;0.73;;;17.00;99.90;;;;;;5032607;28;20044;-57
2022/07/14 06:01:14;;;;;;;6.47;0.95;;;16.90;99.90;;;;;;5033226;28;20457;-29
2022/07/14 06:03:40;;;;;;;6.03;1.27;;;17.00;99.90;;;;;;5032047;28;20036;-30
2022/07/14 06:06:07;;;;;;;4.35;0.80;;;17.00;99.90;;;;;;5032417;28;20283;-40
2022/07/14 06:08:34;;;;;;;2.25;0.90;;;17.10;99.90;;;;;;5014720;28;20079;-39
2022/07/14 06:11:00;;;;;;;5.00;0.80;;;17.20;99.90;;;;;;5032704;28;20441;-40
2022/07/14 06:13:27;;;;;;;2.25;1.13;;;17.40;99.90;;;;;;5030778;28;20026;-40
2022/07/14 06:15:54;;;;;;;2.22;1.50;;;17.50;99.90;;;;;;5034548;28;20022;-39
2022/07/14 06:18:20;;;;;;;3.17;1.37;;;17.60;99.90;;;;;;5015031;28;20163;-38
2022/07/14 06:20:47;;;;;;;7.20;1.02;;;17.70;99.90;;;;;;5036137;28;20100;-38
2022/07/14 06:23:12;;;;;;;4.63;0.80;;;17.90;99.90;;;;;;5020774;28;20378;-39
2022/07/14 06:25:39;;;;;;;4.90;1.15;;;18.00;99.90;;;;;;5026484;28;20036;-38
2022/07/14 06:28:05;;;;;;;4.30;1.30;;;18.60;99.90;;;;;;5026748;28;20025;-39
2022/07/14 06:30:31;;;;;;;1.10;0.75;;;20.10;99.90;;;;;;5031641;28;20025;-39
2022/07/14 06:32:57;;;;;;;2.95;1.10;;;21.30;99.90;;;;;;5014385;28;20358;-53
2022/07/14 06:35:23;;;;;;;8.27;0.93;;;21.80;99.90;;;;;;5031991;28;20511;-43
2022/07/14 06:37:52;;;;;;;5.35;0.90;;;21.90;99.90;;;;;;5032019;28;20030;-38
2022/07/14 06:40:17;;;;;;;6.45;1.48;;;22.40;99.90;;;;;;5031040;28;20025;-40
2022/07/14 06:42:43;;;;;;;3.15;0.90;;;23.60;99.90;;;;;;5032613;28;20030;-39
2022/07/14 06:45:09;;;;;;;6.93;1.00;;;24.70;99.90;;;;;;5027718;28;20393;-36
2022/07/14 06:47:35;;;;;;;1.85;0.60;;;25.60;99.90;;;;;;5029782;28;20564;-39
2022/07/14 06:50:00;;;;;;;1.25;0.50;;;25.50;99.60;;;;;;5029677;28;20193;-39
2022/07/14 06:52:26;;;;;;;3.70;0.80;;;25.20;99.80;;;;;;5031822;28;20032;-38
2022/07/14 06:54:53;;;;;;;9.25;1.20;;;24.40;99.90;;;;;;5031769;28;20021;-40
2022/07/14 06:57:19;;;;;;;3.60;0.70;;;22.90;99.90;;;;;;5033011;28;20385;-39
2022/07/14 06:59:45;;;;;;;3.40;0.90;;;21.90;99.90;;;;;;5031408;28;20025;-38
2022/07/14 07:02:10;;;;;;;6.28;0.88;;;21.40;99.90;;;;;;5029805;28;20033;-39
2022/07/14 07:04:36;;;;;;;7.55;0.65;;;21.20;99.90;;;;;;5030863;28;20033;-39
2022/07/14 07:07:01;;;;;;;3.80;1.10;;;21.60;99.90;;;;;;5031280;28;20026;-39
2022/07/14 07:09:27;;;;;;;3.88;0.93;;;22.30;99.90;;;;;;5029161;28;20079;-39
2022/07/14 07:14:38;;;;;;;3.30;0.90;;;24.90;99.90;;;;;;5020389;28;20044;-38
2022/07/14 07:17:03;;;;;;;3.60;0.77;;;25.50;99.20;;;;;;5038451;28;20029;-39
2022/07/14 07:19:29;;;;;;;4.63;0.93;;;26.00;98.90;;;;;;5036251;28;20029;-59
2022/07/14 07:21:54;;;;;;;3.70;0.57;;;26.50;97.90;;;;;;5031425;28;20026;-38
2022/07/14 07:24:20;;;;;;;2.22;0.63;;;26.60;98.20;;;;;;5028243;28;20017;-39
2022/07/14 07:26:46;;;;;;;3.08;0.93;;;26.70;97.90;;;;;;5031470;28;20022;-38
2022/07/14 07:29:11;;;;;;;6.13;1.20;;;27.00;97.60;;;;;;5030468;28;20347;-37
2022/07/14 07:31:37;;;;;;;5.28;1.08;;;27.30;97.40;;;;;;5035152;28;20025;-31
2022/07/14 07:34:03;;;;;;;4.72;1.00;;;27.40;96.80;;;;;;5014859;28;20084;-29
2022/07/14 07:36:29;;;;;;;4.53;1.33;;;27.30;97.10;;;;;;5001983;28;20028;-30
2022/07/14 07:38:54;;;;;;;2.55;0.95;;;27.20;97.10;;;;;;5029896;28;20033;-34
2022/07/14 07:41:20;;;;;;;5.43;1.13;;;26.90;97.00;;;;;;5030283;28;20116;-33
2022/07/14 07:43:45;;;;;;;4.75;1.00;;;26.70;96.80;;;;;;5028766;28;20389;-30
2022/07/14 07:46:11;;;;;;;6.78;0.95;;;26.20;97.20;;;;;;5031123;28;20030;-32
2022/07/14 07:48:37;;;;;;;4.93;1.55;;;25.60;97.40;;;;;;5030360;28;20034;-31
2022/07/14 07:51:03;;;;;;;4.82;1.10;;;25.30;96.40;;;;;;5031423;28;20024;-29
2022/07/14 07:53:28;;;;;;;3.17;0.80;;;24.80;97.20;;;;;;5029202;28;20017;-38
2022/07/14 07:55:54;;;;;;;3.40;0.80;;;24.50;97.80;;;;;;5032562;28;20024;-41
2022/07/14 07:58:20;;;;;;;1.52;0.73;;;24.40;97.20;;;;;;5027364;28;20060;-40
2022/07/14 08:00:47;;;;;;;2.47;0.90;;;24.40;96.80;;;;;;5030182;28;20030;-49
2022/07/14 08:03:13;;;;;;;4.47;0.87;;;24.10;97.70;;;;;;5026401;28;20035;-37
2022/07/14 08:05:40;;;;;;;3.60;1.37;;;23.60;97.50;;;;;;5030195;28;20034;-37
2022/07/14 08:08:09;;;;;;;;;;;23.20;98.70;;;;;;5032506;28;20162;-40
2022/07/14 08:10:36;;;;;;;5.20;0.95;;;23.30;98.70;;;;;;5031680;28;19963;-40
2022/07/14 08:13:02;;;;;;;3.17;0.90;;;23.50;98.70;;;;;;5027842;28;20095;-37
2022/07/14 08:15:28;;;;;;;4.18;0.90;;;23.50;98.90;;;;;;5032677;28;20508;-40
2022/07/14 08:17:54;;;;;;;6.07;1.63;;;23.80;98.50;;;;;;5013207;28;20041;-29
2022/07/14 08:20:19;;;;;;;9.68;0.88;;;24.50;97.60;;;;;;5028765;28;20037;-37
2022/07/14 08:22:45;;;;;;;6.30;1.10;;;24.60;97.60;;;;;;5038213;28;20032;-32
2022/07/14 08:25:11;;;;;;;2.67;0.90;;;24.80;97.50;;;;;;5029931;28;20120;-40
2022/07/14 08:27:37;;;;;;;6.25;1.00;;;24.80;97.20;;;;;;5031576;28;20022;-47
2022/07/14 08:30:04;;;;;;;7.20;1.00;;;24.60;97.40;;;;;;5034615;28;20044;-42
2022/07/14 08:32:50;;;;;;;5.10;0.88;;;24.40;97.80;;;;;;5014973;28;20041;-38
2022/07/14 08:35:18;;;;;;;2.92;1.25;;;24.40;97.60;;;;;;4998713;28;20030;-39
2022/07/14 08:37:44;;;;;;;3.13;1.23;;;24.40;97.50;;;;;;5026224;28;20057;-39
2022/07/14 08:40:13;;;;;;;1.90;0.85;;;24.40;97.80;;;;;;5037193;28;20500;-40
2022/07/14 08:42:42;;;;;;;6.07;0.98;;;24.70;97.40;;;;;;5035873;28;20447;-40
2022/07/14 08:45:12;;;;;;;2.63;1.20;;;24.90;96.90;;;;;;5032255;28;20588;-39
2022/07/14 08:47:38;;;;;;;4.00;0.60;;;25.00;96.70;;;;;;5035989;28;20025;-40
2022/07/14 08:50:05;;;;;;;3.80;0.90;;;25.30;95.90;;;;;;5034789;28;20047;-37
2022/07/14 08:52:32;;;;;;;3.05;0.57;;;25.50;95.60;;;;;;5035610;28;20428;-32
2022/07/14 08:54:58;;;;;;;5.30;0.73;;;25.70;95.50;;;;;;5029751;28;20080;-37
2022/07/14 08:57:24;;;;;;;6.57;0.80;;;25.90;95.40;;;;;;5033488;28;20113;-33
2022/07/14 08:59:49;;;;;;;1.42;0.63;;;25.90;94.90;;;;;;5031725;28;20112;-33
2022/07/14 09:02:16;;;;;;;3.38;1.20;;;26.10;95.00;;;;;;5029714;28;20024;-29
2022/07/14 09:04:45;;;;;;;3.85;0.60;;;26.20;94.30;;;;;;5032919;28;20036;-31
2022/07/14 09:07:12;;;;;;;3.08;0.90;;;26.00;94.70;;;;;;5036749;28;20040;-31
2022/07/14 09:09:38;;;;;;;5.07;0.82;;;26.00;94.80;;;;;;5036798;28;20068;-35
2022/07/14 09:12:06;;;;;;;1.35;0.50;;;26.20;94.40;;;;;;5033835;28;20535;-38
2022/07/14 09:17:24;;;;;;;5.93;0.82;;;26.40;95.40;;;;;;5020027;28;20044;-39
2022/07/14 09:20:13;;;;;;;3.42;1.02;;;25.70;96.10;;;;;;5021169;28;20127;-40
2022/07/14 09:22:40;;;;;;;1.83;0.80;;;25.60;96.00;;;;;;5042030;28;20481;-39
2022/07/14 09:25:09;;;;;;;6.22;0.82;;;25.40;96.50;;;;;;5037761;28;20025;-40
2022/07/14 09:27:36;;;;;;;5.25;0.90;;;25.10;96.80;;;;;;5032072;28;20477;-40
2022/07/14 09:30:04;;;;;;;2.30;0.82;;;24.70;97.10;;;;;;5033390;28;20025;-41
2022/07/14 09:32:49;;;;;;;2.80;0.98;;;24.40;97.80;;;;;;5035930;28;20029;-41
2022/07/14 09:35:17;;;;;;;5.80;0.68;;;24.40;97.40;;;;;;5034542;28;20494;-39
2022/07/14 09:37:44;;;;;;;5.43;1.13;;;24.40;97.10;;;;;;5032280;28;20485;-39
2022/07/14 09:40:13;;;;;;;2.35;0.75;;;24.80;96.30;;;;;;5032479;28;20088;-41
2022/07/14 09:42:53;;;;;;;6.32;0.98;;;24.60;97.10;;;;;;5032572;28;20558;-40
2022/07/14 09:45:21;;;;;;;2.38;0.47;;;24.50;97.10;;;;;;5033523;28;20095;-37
2022/07/14 09:48:01;;;;;;;4.13;0.77;;;24.60;97.40;;;;;;5034292;28;20040;-40
2022/07/14 09:50:33;;;;;;;1.05;0.68;;;24.80;97.10;;;;;;5016236;28;20061;-39
2022/07/14 09:52:58;;;;;;;5.07;0.60;;;24.80;97.30;;;;;;5033222;28;20036;-39
2022/07/14 09:55:24;;;;;;;3.38;0.90;;;24.60;96.80;;;;;;5033548;28;20474;-37
2022/07/14 09:57:51;;;;;;;3.03;0.80;;;24.40;96.30;;;;;;5033848;28;20486;-37
2022/07/14 10:00:19;;;;;;;;;;;24.20;96.70;;;;;;5033027;28;20385;-38
2022/07/14 10:02:45;;;;;;;2.88;0.60;;;24.40;96.30;;;;;;5033947;28;19987;-38
2022/07/14 10:05:13;;;;;;;5.57;0.80;;;24.60;95.90;;;;;;5033080;28;20057;-38
2022/07/14 10:07:41;;;;;;;0.77;0.50;;;24.60;96.00;;;;;;5032485;28;20021;-39
2022/07/14 10:10:09;;;;;;;2.42;0.40;;;25.00;95.00;;;;;;5030581;28;20033;-37
2022/07/14 10:12:37;;;;;;;0.90;0.57;;;25.30;94.90;;;;;;5034159;28;20104;-40
2022/07/14 10:15:05;;;;;;;0.65;0.32;;;25.70;94.10;;;;;;5034116;28;20021;-39
2022/07/14 10:17:35;;;;;;;0.85;0.73;;;25.40;94.80;;;;;;5033135;28;20029;-39
2022/07/14 10:20:02;;;;;;;9.10;1.33;;;25.00;95.70;;;;;;5033345;28;20025;-39
2022/07/14 10:22:29;;;;;;;4.50;0.70;;;24.70;94.60;;;;;;5016702;28;20048;-39
2022/07/14 10:24:56;;;;;;;3.85;0.68;;;24.20;94.70;;;;;;5032814;28;20108;-39
2022/07/14 10:27:22;;;;;;;3.13;0.63;;;24.20;94.90;;;;;;5033777;28;20109;-40
2022/07/14 10:29:53;;;;;;;1.15;0.43;;;24.20;95.00;;;;;;5033022;28;20064;-37
2022/07/14 10:32:35;;;;;;;4.00;0.80;;;24.30;94.90;;;;;;5033384;28;20538;-39
2022/07/14 10:35:40;;;;;;;3.03;0.60;;;24.60;94.00;;;;;;5013399;28;20067;-39
2022/07/14 10:38:15;;;;;;;3.40;0.88;;;24.60;94.60;;;;;;5030874;28;20489;-37
2022/07/14 10:41:05;;;;;;;0.85;0.75;;;24.50;94.60;;;;;;5031071;28;20470;-39
2022/07/14 10:44:01;;;;;;;0.52;0.38;;;24.40;93.30;;;;;;5019582;28;20033;-39
2022/07/14 10:46:42;;;;;;;0.68;0.30;;;24.30;91.90;;;;;;5005064;28;20045;-42
2022/07/14 10:49:09;;;;;;;2.38;0.85;;;24.40;92.80;;;;;;5036464;28;20049;-46
2022/07/14 10:51:44;;;;;;;;;;;24.50;93.60;;;;;;5036564;28;20480;-39
2022/07/14 10:54:27;;;;;;;3.30;0.65;;;24.50;94.30;;;;;;5031244;28;20051;-28
2022/07/14 10:57:17;;;;;;;1.55;0.63;;;24.40;94.90;;;;;;5010882;28;20124;-32
2022/07/14 10:59:47;;;;;;;2.50;0.60;;;24.30;95.80;;;;;;5033698;28;20025;-37
2022/07/14 11:02:13;;;;;;;5.13;0.63;;;23.90;95.50;;;;;;5032642;28;20017;-35
2022/07/14 11:05:12;;;;;;;2.88;0.93;;;23.60;95.80;;;;;;5033359;28;20139;-32
2022/07/14 11:07:44;;;;;;;4.68;0.70;;;23.40;96.00;;;;;;5032818;28;20040;-41
2022/07/14 11:10:19;;;;;;;2.50;0.75;;;23.50;96.00;;;;;;5031121;28;20029;-32
2022/07/14 11:13:00;;;;;;;9.43;0.82;;;23.40;95.70;;;;;;5033250;28;20024;-35
2022/07/14 11:15:55;;;;;;;2.42;0.63;;;23.30;96.00;;;;;;5032460;28;20032;-32
2022/07/14 11:18:21;;;;;;;2.58;0.80;;;23.30;96.20;;;;;;5033387;28;20033;-36
2022/07/14 11:20:55;;;;;;;2.55;0.65;;;23.10;95.80;;;;;;5033379;28;20060;-32
2022/07/14 11:23:27;;;;;;;1.95;0.68;;;23.10;96.40;;;;;;5032721;28;20496;-29
2022/07/14 11:25:54;;;;;;;3.08;0.90;;;23.20;95.90;;;;;;5031675;28;20029;-40
2022/07/14 11:28:37;;;;;;;2.10;0.90;;;23.20;96.40;;;;;;5030728;28;20088;-30
2022/07/14 11:31:10;;;;;;;2.60;0.70;;;23.00;96.40;;;;;;5032347;28;20021;-32
2022/07/14 11:36:17;;;;;;;4.00;0.82;;;22.90;96.80;;;;;;5032289;28;20029;-32
2022/07/14 11:36:24;;;;;;;1.75;0.80;;;22.90;96.60;;;;;;5031925;28;20030;-30
2022/07/14 11:38:49;;;;;;;0.45;0.45;;;22.70;96.60;;;;;;5033233;28;20025;-29
2022/07/14 11:41:15;;;;;;;3.70;1.20;;;22.70;96.90;;;;;;5030103;28;20125;-37
2022/07/14 11:43:43;;;;;;;7.60;0.70;;;22.80;96.80;;;;;;5031451;28;20101;-31
2022/07/14 11:46:15;;;;;;;5.95;0.75;;;22.80;97.10;;;;;;5014027;28;20120;-30
2022/07/14 11:48:48;;;;;;;5.97;1.33;;;22.70;96.60;;;;;;5032787;28;20493;-40
2022/07/14 11:51:19;;;;;;;1.60;0.90;;;22.80;96.50;;;;;;5032178;28;20456;-52
2022/07/14 11:53:45;;;;;;;3.17;0.77;;;22.60;96.70;;;;;;5032849;28;20029;-31
2022/07/14 11:56:12;;;;;;;9.50;1.30;;;22.60;96.80;;;;;;5032858;28;20446;-35
2022/07/14 11:58:41;;;;;;;3.10;0.80;;;22.60;97.40;;;;;;5033108;28;20030;-31
2022/07/14 12:01:08;;;;;;;2.83;0.95;;;22.50;97.60;;;;;;5035876;28;20461;-36
2022/07/14 12:03:34;;;;;;;1.45;0.80;;;22.40;97.20;;;;;;5014435;28;20029;-30
2022/07/14 12:06:01;;;;;;;6.47;1.30;;;22.30;96.90;;;;;;5016860;28;20489;-31
2022/07/14 12:08:33;;;;;;;3.30;0.60;;;22.20;97.00;;;;;;5016705;28;20029;-30
2022/07/14 12:11:04;;;;;;;1.70;0.98;;;22.20;97.10;;;;;;5020097;28;20481;-29
2022/07/14 12:13:30;;;;;;;3.67;0.73;;;22.10;97.00;;;;;;5036423;28;20013;-29
2022/07/14 12:16:01;;;;;;;1.70;0.70;;;22.00;97.30;;;;;;5034405;28;20112;-33
2022/07/14 12:18:31;;;;;;;2.63;2.03;;;22.10;97.40;;;;;;5036349;28;20036;-32
2022/07/14 12:20:59;;;;;;;1.52;0.90;;;22.30;98.20;;;;;;5036131;28;20039;-32
2022/07/14 12:23:25;;;;;;;6.53;1.05;;;22.80;97.30;;;;;;5035943;28;20473;-35
2022/07/14 12:25:51;;;;;;;2.90;0.60;;;23.20;96.30;;;;;;5036127;28;20025;-37
2022/07/14 12:28:18;;;;;;;5.95;0.90;;;23.40;96.10;;;;;;5033819;28;20091;-39
2022/07/14 12:30:44;;;;;;;;;;;23.70;96.30;;;;;;5035950;28;20571;-40
2022/07/14 12:33:11;;;;;;;6.82;0.80;;;23.80;95.90;;;;;;5036028;28;19921;-39
2022/07/14 12:35:38;;;;;;;2.08;0.57;;;24.00;96.00;;;;;;5035658;28;20018;-38
2022/07/14 12:38:04;;;;;;;1.27;1.15;;;24.40;96.10;;;;;;5034471;28;20032;-39
2022/07/14 12:40:32;;;;;;;1.13;0.70;;;24.60;95.50;;;;;;5035433;28;20029;-39
2022/07/14 12:42:58;;;;;;;1.35;1.02;;;24.80;95.60;;;;;;5035538;28;20037;-38
2022/07/14 12:45:24;;;;;;;1.52;0.70;;;24.90;95.50;;;;;;5034780;28;20033;-39
2022/07/14 12:48:00;;;;;;;4.10;0.80;;;24.80;95.80;;;;;;5017198;28;20024;-38
2022/07/14 12:50:28;;;;;;;1.85;0.85;;;24.10;96.20;;;;;;5035665;28;20045;-51
2022/07/14 12:52:56;;;;;;;2.88;1.48;;;23.70;97.00;;;;;;5034880;28;20025;-39
2022/07/14 12:55:37;;;;;;;4.13;1.00;;;23.10;97.10;;;;;;5035084;28;20032;-39
2022/07/14 12:58:08;;;;;;;4.43;1.27;;;22.90;97.80;;;;;;5017885;28;20030;-39
2022/07/14 13:00:35;;;;;;;3.75;1.45;;;22.80;97.90;;;;;;5035918;28;20024;-34
2022/07/14 13:03:15;;;;;;;1.55;0.50;;;23.00;98.40;;;;;;5034666;28;20029;-28
2022/07/14 13:05:52;;;;;;;1.83;1.02;;;23.40;97.90;;;;;;5035530;28;20048;-33